Aviation Digital Data Service (ADDS)

Output produced by METARs form (0453 UTC 23 February 2017)
found at http://aviationweather.gov/adds/metars/
 
KPGV 222354Z 2300/2324 19006KT P6SM OVC070 
     FM230900 00000KT 3SM BR SCT050 BKN150 
     FM231300 18005KT P6SM SCT050 BKN120 AMD LTD TO CLD VIS AND WIND